Time;durP1;ratioP1;P1;durP2;ratioP2;P2;SDS_P1;SDS_P2;PMS_P1;PMS_P2;Temp;Humidity;BMP_temperature;BMP_pressure;BME280_temperature;BME280_humidity;BME280_pressure;Samples;Min_cycle;Max_cycle;Signal;HPM_P1;HPM_P2
2022/08/11 00:00:43;;;;;;;5.70;2.80;;;21.40;61.70;;;;;;5053269;28;20029;-82
2022/08/11 00:03:11;;;;;;;7.97;3.38;;;21.40;61.30;;;;;;5065724;28;20079;-81
2022/08/11 00:05:52;;;;;;;6.93;2.85;;;21.40;61.80;;;;;;5047396;28;20031;-80
2022/08/11 00:08:31;;;;;;;6.85;3.50;;;21.40;61.80;;;;;;5044775;28;20087;-82
2022/08/11 00:11:01;;;;;;;7.05;3.15;;;21.20;61.60;;;;;;5053709;28;20059;-82
2022/08/11 00:13:34;;;;;;;7.15;3.00;;;21.30;61.50;;;;;;5064048;28;20021;-81
2022/08/11 00:16:02;;;;;;;5.68;2.65;;;21.20;61.90;;;;;;5062747;28;20040;-82
2022/08/11 00:18:37;;;;;;;5.72;2.78;;;21.20;61.70;;;;;;5048569;28;20056;-83
2022/08/11 00:21:02;;;;;;;3.88;2.67;;;21.10;62.10;;;;;;5061246;28;20082;-80
2022/08/11 00:23:28;;;;;;;6.68;2.67;;;21.10;61.50;;;;;;5047226;28;20060;-80
2022/08/11 00:25:55;;;;;;;6.20;3.40;;;;;;;;;;5047601;28;20036;-84
2022/08/11 00:28:29;;;;;;;8.15;3.83;;;21.20;61.20;;;;;;5052259;28;20429;-82
2022/08/11 00:30:58;;;;;;;5.22;3.10;;;21.20;61.50;;;;;;5046966;28;20028;-83
2022/08/11 00:33:31;;;;;;;6.05;2.78;;;21.20;61.30;;;;;;5061267;28;20052;-81
2022/08/11 00:35:59;;;;;;;5.88;3.25;;;21.10;61.10;;;;;;5054288;28;20029;-81
2022/08/11 00:38:30;;;;;;;4.75;3.08;;;21.10;61.40;;;;;;5060455;28;20053;-83
2022/08/11 00:41:33;;;;;;;5.70;2.70;;;21.10;61.40;;;;;;5060678;28;20409;-81
2022/08/11 00:44:43;;;;;;;4.28;2.45;;;21.10;61.70;;;;;;5061652;28;20036;-82
2022/08/11 00:47:30;;;;;;;5.47;3.70;;;21.10;62.10;;;;;;5037967;28;20030;-80
2022/08/11 00:50:01;;;;;;;5.18;3.10;;;21.00;60.90;;;;;;5032259;28;20391;-81
2022/08/11 00:52:51;;;;;;;3.80;2.40;;;21.00;60.50;;;;;;5052399;28;20103;-82
2022/08/11 00:55:17;;;;;;;6.63;2.20;;;;;;;;;;5046703;28;20044;-82
2022/08/11 00:58:18;;;;;;;5.80;2.92;;;21.10;60.90;;;;;;5047217;28;20048;-81
2022/08/11 01:01:09;;;;;;;4.53;2.70;;;21.00;61.30;;;;;;5046508;28;20071;-82
2022/08/11 01:04:15;;;;;;;5.90;3.05;;;21.10;60.60;;;;;;5047633;28;20538;-82
2022/08/11 01:07:02;;;;;;;4.97;2.80;;;21.10;61.00;;;;;;5055634;28;20087;-82
2022/08/11 01:09:58;;;;;;;4.25;2.38;;;21.10;60.60;;;;;;5057720;28;20020;-81
2022/08/11 01:12:42;;;;;;;3.65;2.80;;;21.10;61.10;;;;;;5041196;28;20576;-82
2022/08/11 01:15:46;;;;;;;5.47;2.88;;;21.00;60.70;;;;;;5059871;28;20037;-83
2022/08/11 01:18:45;;;;;;;5.88;2.72;;;21.00;60.70;;;;;;5062657;28;20021;-81
2022/08/11 01:21:17;;;;;;;7.73;2.83;;;21.00;61.10;;;;;;5062503;28;20025;-81
2022/08/11 01:24:04;;;;;;;5.93;2.97;;;21.00;60.70;;;;;;5063267;28;20331;-81
2022/08/11 01:26:54;;;;;;;4.07;2.88;;;20.90;61.00;;;;;;5070141;28;20018;-81
2022/08/11 01:29:54;;;;;;;4.28;2.60;;;20.90;61.20;;;;;;5058755;28;20025;-82
2022/08/11 01:32:57;;;;;;;2.92;2.05;;;20.90;61.30;;;;;;5059430;28;21015;-82
2022/08/11 01:35:52;;;;;;;5.65;2.63;;;20.90;61.00;;;;;;5057341;28;20028;-82
2022/08/11 01:38:36;;;;;;;4.53;2.60;;;20.80;61.30;;;;;;5029779;28;20543;-82
2022/08/11 01:41:08;;;;;;;15.80;3.10;;;20.80;61.00;;;;;;5037270;28;20036;-82
2022/08/11 01:47:05;;;;;;;10.40;2.72;;;22.30;62.40;;;;;;5048653;28;20032;-80
2022/08/11 01:49:38;;;;;;;6.38;2.92;;;20.80;61.40;;;;;;5010670;28;20026;-81
2022/08/11 01:52:34;;;;;;;11.18;3.05;;;20.70;61.20;;;;;;5052320;28;20033;-81
2022/08/11 01:55:33;;;;;;;6.15;2.60;;;20.70;60.70;;;;;;5033494;28;20375;-81
2022/08/11 01:58:33;;;;;;;7.60;2.53;;;20.80;61.20;;;;;;5057230;28;20044;-81
2022/08/11 02:01:21;;;;;;;7.43;2.50;;;20.70;61.10;;;;;;5047922;28;20033;-82
2022/08/11 02:03:56;;;;;;;6.20;2.17;;;20.70;60.90;;;;;;5043668;28;20025;-82
2022/08/11 02:06:55;;;;;;;8.43;2.50;;;20.60;60.90;;;;;;5062944;28;20017;-84
2022/08/11 02:09:28;;;;;;;6.05;2.55;;;20.70;61.60;;;;;;5058515;28;20021;-83
2022/08/11 02:12:00;;;;;;;7.60;2.65;;;20.60;61.50;;;;;;5062353;28;20108;-84
2022/08/11 02:15:16;;;;;;;5.00;2.38;;;20.60;61.20;;;;;;5058931;28;20021;-81
2022/08/11 02:18:12;;;;;;;4.20;2.38;;;20.60;61.30;;;;;;4963188;28;20432;-83
2022/08/11 02:23:53;;;;;;;6.18;2.85;;;20.50;61.40;;;;;;5046572;28;20120;-79
2022/08/11 02:26:49;;;;;;;5.13;2.60;;;20.50;62.00;;;;;;5049268;28;20105;-80
2022/08/11 02:29:34;;;;;;;4.88;2.47;;;20.50;61.60;;;;;;5056220;28;20074;-82
2022/08/11 02:33:22;;;;;;;5.63;2.85;;;20.50;62.10;;;;;;5058049;28;20050;-80
2022/08/11 02:36:02;;;;;;;6.28;2.70;;;20.50;62.30;;;;;;4955982;28;20122;-81
2022/08/11 02:38:42;;;;;;;3.88;2.00;;;20.50;61.40;;;;;;4954139;28;20027;-80
2022/08/11 02:44:37;;;;;;;3.00;2.40;;;20.50;61.50;;;;;;5059377;28;20056;-79
2022/08/11 02:47:40;;;;;;;3.88;2.28;;;20.50;61.70;;;;;;5035699;28;20089;-82
2022/08/11 02:50:22;;;;;;;3.85;2.47;;;20.50;62.10;;;;;;5053924;28;20059;-81
2022/08/11 02:53:02;;;;;;;8.30;3.00;;;20.50;61.60;;;;;;5032842;28;20029;-81
2022/08/11 02:55:49;;;;;;;5.30;2.50;;;20.50;62.10;;;;;;5056874;28;20294;-80
2022/08/11 02:58:38;;;;;;;4.15;2.30;;;20.50;61.90;;;;;;5046477;28;20021;-80
2022/08/11 03:01:12;;;;;;;6.75;2.40;;;20.50;62.00;;;;;;5024140;28;20029;-82
2022/08/11 03:03:43;;;;;;;4.90;2.63;;;20.50;61.60;;;;;;5059740;28;20231;-84
2022/08/11 03:06:28;;;;;;;5.97;2.28;;;20.40;61.60;;;;;;5041756;28;20040;-83
2022/08/11 03:09:09;;;;;;;4.53;2.35;;;19.40;61.60;;;;;;5058379;28;20025;-81
2022/08/11 03:17:56;;;;;;;5.57;2.88;;;20.30;62.40;;;;;;5051193;28;20087;-79
2022/08/11 03:20:25;;;;;;;3.43;2.20;;;20.30;62.50;;;;;;5033595;28;20021;-83
2022/08/11 03:23:08;;;;;;;3.50;2.35;;;20.20;62.40;;;;;;5059925;28;20025;-83
2022/08/11 03:25:48;;;;;;;4.18;2.30;;;20.10;62.90;;;;;;5057886;28;20025;-82
2022/08/11 03:28:40;;;;;;;;;;;21.30;63.80;;;;;;5059584;28;20039;-81
2022/08/11 03:31:26;;;;;;;7.03;2.88;;;20.10;62.80;;;;;;5043914;28;19928;-82
2022/08/11 03:34:04;;;;;;;5.22;2.40;;;20.10;62.80;;;;;;5069168;28;20021;-83
2022/08/11 03:37:07;;;;;;;4.07;2.28;;;20.10;63.20;;;;;;5045824;28;20025;-84
2022/08/11 03:39:51;;;;;;;6.03;2.40;;;20.00;63.30;;;;;;5062935;28;20029;-81
2022/08/11 03:42:38;;;;;;;5.13;2.58;;;20.00;63.40;;;;;;5061000;28;20021;-82
2022/08/11 03:45:20;;;;;;;5.00;2.30;;;20.00;63.10;;;;;;5056926;28;20032;-79
2022/08/11 03:47:51;;;;;;;4.32;2.67;;;20.00;63.50;;;;;;5044937;28;20021;-82
2022/08/11 03:50:45;;;;;;;5.35;2.38;;;21.40;64.30;;;;;;5053368;28;20394;-82
2022/08/11 03:53:49;;;;;;;6.05;2.60;;;20.00;63.40;;;;;;5034435;28;20017;-82
2022/08/11 03:56:36;;;;;;;6.00;2.40;;;20.00;63.80;;;;;;5053312;28;20033;-81
2022/08/11 03:59:31;;;;;;;5.47;2.60;;;20.00;63.80;;;;;;5047000;28;20393;-80
2022/08/11 04:02:15;;;;;;;4.05;2.30;;;20.00;63.60;;;;;;5051969;28;20055;-81
2022/08/11 04:04:53;;;;;;;7.90;2.65;;;19.90;63.40;;;;;;5065527;28;20089;-84
2022/08/11 04:07:56;;;;;;;4.82;2.40;;;19.80;63.70;;;;;;5055151;28;20056;-83
2022/08/11 04:10:24;;;;;;;4.72;2.08;;;19.80;64.10;;;;;;5067577;28;20048;-82
2022/08/11 04:12:50;;;;;;;5.55;2.20;;;;;;;;;;5045962;28;20505;-81
2022/08/11 04:15:59;;;;;;;2.88;2.13;;;19.70;64.00;;;;;;5040265;28;20093;-83
2022/08/11 04:18:44;;;;;;;4.95;2.72;;;19.80;64.40;;;;;;5029659;28;20025;-81
2022/08/11 04:21:18;;;;;;;5.68;2.70;;;19.80;64.40;;;;;;5055493;28;20029;-81
2022/08/11 04:24:12;;;;;;;5.88;2.55;;;19.70;64.20;;;;;;5042612;28;20502;-83
2022/08/11 04:26:59;;;;;;;8.23;2.58;;;19.70;64.70;;;;;;5064159;28;20047;-82
2022/08/11 04:29:49;;;;;;;5.82;2.50;;;19.70;64.70;;;;;;5058787;28;20017;-81
2022/08/11 04:32:39;;;;;;;4.05;2.60;;;19.60;64.30;;;;;;5040067;28;20059;-82
2022/08/11 04:35:24;;;;;;;4.55;2.30;;;19.70;64.60;;;;;;5055759;28;20092;-80
2022/08/11 04:38:17;;;;;;;3.67;2.38;;;19.60;64.70;;;;;;5060081;28;20107;-83
2022/08/11 04:40:54;;;;;;;5.32;2.50;;;19.60;65.10;;;;;;5044541;28;20088;-80
2022/08/11 04:43:38;;;;;;;4.05;2.42;;;19.60;65.10;;;;;;5055133;28;20051;-81
2022/08/11 04:46:41;;;;;;;6.53;2.63;;;19.60;65.60;;;;;;5063650;28;20025;-79
2022/08/11 05:01:42;;;;;;;4.78;2.45;;;19.70;65.40;;;;;;5064748;28;20040;-81
2022/08/11 05:07:29;;;;;;;3.97;2.38;;;19.60;65.60;;;;;;5064667;28;20048;-82
2022/08/11 05:10:36;;;;;;;6.38;2.90;;;19.60;65.30;;;;;;5045681;28;20060;-82
2022/08/11 05:36:49;;;;;;;8.27;2.90;;;19.90;65.80;;;;;;5055357;28;20051;-82
2022/08/11 05:58:44;;;;;;;3.42;2.53;;;22.00;61.50;;;;;;5057124;28;20063;-80
2022/08/11 06:01:20;;;;;;;6.28;3.03;;;22.60;60.10;;;;;;5064697;28;20021;-81
2022/08/11 06:06:39;;;;;;;7.03;2.67;;;23.20;59.20;;;;;;5055129;28;20032;-80
2022/08/11 06:09:05;;;;;;;3.55;2.50;;;23.00;58.90;;;;;;5069141;28;20267;-82
2022/08/11 06:11:41;;;;;;;4.55;2.40;;;22.80;59.70;;;;;;5058525;28;20053;-84
2022/08/11 06:14:09;;;;;;;4.10;2.40;;;22.60;59.80;;;;;;5053955;28;20033;-81
2022/08/11 06:16:36;;;;;;;5.32;2.72;;;;;;;;;;5043635;28;20036;-82
2022/08/11 06:19:03;;;;;;;6.63;2.72;;;22.30;60.50;;;;;;5057139;28;20025;-80
2022/08/11 06:21:35;;;;;;;6.82;2.33;;;22.30;61.40;;;;;;5042385;28;20027;-80
2022/08/11 06:24:10;;;;;;;6.97;2.90;;;22.40;60.80;;;;;;5059769;28;20013;-80
2022/08/11 06:26:37;;;;;;;3.30;2.60;;;22.40;61.20;;;;;;5039271;28;20052;-78
2022/08/11 06:29:04;;;;;;;3.83;2.50;;;22.60;61.30;;;;;;5058583;28;20097;-81
2022/08/11 06:31:32;;;;;;;6.43;2.53;;;22.40;61.00;;;;;;5054538;28;20029;-82
2022/08/11 06:34:11;;;;;;;3.72;2.38;;;22.40;60.80;;;;;;5061807;28;20028;-79
2022/08/11 06:36:53;;;;;;;4.45;2.50;;;22.40;61.30;;;;;;5034344;28;20029;-79
2022/08/11 06:39:19;;;;;;;4.30;2.58;;;;;;;;;;5041461;28;20045;-79
2022/08/11 06:41:52;;;;;;;5.75;2.75;;;22.40;61.00;;;;;;5060678;28;20035;-80
2022/08/11 06:44:23;;;;;;;5.90;2.90;;;22.40;60.90;;;;;;5061952;28;20095;-82
2022/08/11 06:46:54;;;;;;;5.68;2.60;;;22.40;61.60;;;;;;5056674;28;20463;-82
2022/08/11 06:52:17;;;;;;;4.13;2.63;;;22.50;61.50;;;;;;5065664;28;20078;-79
2022/08/11 06:54:56;;;;;;;4.97;2.85;;;22.60;61.50;;;;;;5051957;28;20167;-81
2022/08/11 07:02:59;;;;;;;4.50;2.72;;;22.70;61.00;;;;;;5060127;28;20041;-82
2022/08/11 07:05:54;;;;;;;4.55;3.03;;;22.70;61.40;;;;;;5059235;28;20459;-82
2022/08/11 07:28:54;;;;;;;7.65;2.50;;;23.00;60.50;;;;;;5054004;28;20036;-81
2022/08/11 07:28:54;;;;;;;4.60;2.55;;;23.30;60.50;;;;;;5058249;28;20067;-82
2022/08/11 07:31:30;;;;;;;5.43;2.50;;;23.50;59.90;;;;;;5055719;28;20112;-82
2022/08/11 07:34:10;;;;;;;4.50;2.63;;;23.50;60.00;;;;;;5057249;28;20028;-80
2022/08/11 07:36:44;;;;;;;9.93;3.05;;;23.70;59.70;;;;;;5059190;28;20084;-84
2022/08/11 07:39:19;;;;;;;4.50;2.50;;;23.70;60.00;;;;;;5061977;28;20033;-83
2022/08/11 07:41:46;;;;;;;6.53;2.50;;;;;;;;;;5070865;28;20052;-84
2022/08/11 07:44:15;;;;;;;6.55;2.85;;;24.00;59.40;;;;;;5070995;28;20029;-81
2022/08/11 07:52:31;;;;;;;4.80;2.67;;;;;;;;;;5070182;28;20075;-80
2022/08/11 07:55:13;;;;;;;4.57;2.63;;;24.40;58.50;;;;;;5069966;28;20025;-84
2022/08/11 08:19:46;;;;;;;4.95;2.38;;;25.50;56.70;;;;;;5067321;28;20032;-80
2022/08/11 08:22:17;;;;;;;3.45;2.33;;;25.60;56.40;;;;;;5068721;28;20021;-80
2022/08/11 08:24:43;;;;;;;5.80;2.50;;;25.70;56.70;;;;;;5071868;28;20025;-80
2022/08/11 08:27:12;;;;;;;3.65;2.35;;;25.90;57.20;;;;;;5071830;28;20025;-81
2022/08/11 08:32:24;;;;;;;5.03;2.30;;;25.80;56.50;;;;;;5066958;28;20062;-81
2022/08/11 08:34:51;;;;;;;4.80;2.40;;;25.90;56.20;;;;;;5064320;28;20021;-82
2022/08/11 08:37:18;;;;;;;4.18;2.28;;;26.20;56.20;;;;;;5067026;28;20048;-82
2022/08/11 08:39:46;;;;;;;4.80;2.33;;;26.30;56.00;;;;;;5067695;28;20029;-80
2022/08/11 08:42:17;;;;;;;5.43;2.38;;;26.60;55.90;;;;;;5067424;28;20058;-79
2022/08/11 08:44:46;;;;;;;4.22;2.33;;;26.60;56.00;;;;;;5066604;28;20029;-79
2022/08/11 08:47:15;;;;;;;5.37;2.17;;;26.70;56.30;;;;;;5047580;28;20028;-79
2022/08/11 08:49:48;;;;;;;4.22;2.30;;;26.90;54.80;;;;;;5040459;28;20017;-80
2022/08/11 08:52:18;;;;;;;5.70;2.35;;;26.90;54.30;;;;;;5064214;28;20597;-81
2022/08/11 08:54:47;;;;;;;4.40;2.40;;;26.90;54.50;;;;;;5067407;28;20089;-80
2022/08/11 08:57:15;;;;;;;8.45;2.40;;;26.80;54.70;;;;;;5067695;28;20028;-81
2022/08/11 08:59:45;;;;;;;6.05;2.08;;;26.90;53.80;;;;;;5051118;28;20039;-81
2022/08/11 09:02:11;;;;;;;5.15;2.20;;;;;;;;;;5056719;28;20025;-80
2022/08/11 09:04:39;;;;;;;4.22;1.92;;;27.00;54.20;;;;;;5067870;28;20037;-82
2022/08/11 09:07:11;;;;;;;6.03;2.30;;;27.00;54.60;;;;;;5067889;28;20080;-82
2022/08/11 09:09:47;;;;;;;4.75;2.28;;;27.20;54.10;;;;;;5068092;28;20077;-81
2022/08/11 09:12:13;;;;;;;5.75;2.38;;;;;;;;;;5057264;28;20022;-82
2022/08/11 09:15:03;;;;;;;6.38;2.45;;;27.30;54.20;;;;;;5053079;28;20025;-83
2022/08/11 09:17:37;;;;;;;;;;;27.40;54.00;;;;;;5069390;28;20017;-82
2022/08/11 09:20:12;;;;;;;4.65;2.35;;;27.50;54.10;;;;;;5049762;28;19951;-81
2022/08/11 09:28:19;;;;;;;6.65;1.70;;;27.80;53.60;;;;;;5069384;28;20319;-82
2022/08/11 09:30:53;;;;;;;4.63;1.90;;;28.00;52.20;;;;;;5065495;28;20032;-82
2022/08/11 09:33:20;;;;;;;5.38;1.95;;;27.90;52.10;;;;;;5058471;28;20021;-82
2022/08/11 09:35:48;;;;;;;5.32;2.20;;;28.10;51.90;;;;;;5053303;28;20021;-83
2022/08/11 09:41:04;;;;;;;6.45;2.10;;;28.10;51.70;;;;;;5070163;28;20032;-81
2022/08/11 09:46:15;;;;;;;6.82;2.40;;;28.30;52.30;;;;;;5062689;28;20082;-83
2022/08/11 09:48:44;;;;;;;6.65;1.80;;;28.50;52.30;;;;;;5067834;28;20017;-82
2022/08/11 09:51:11;;;;;;;4.07;2.00;;;28.40;52.00;;;;;;5056125;28;20429;-80
2022/08/11 09:53:43;;;;;;;7.80;2.42;;;28.40;51.60;;;;;;5068437;28;20465;-80
2022/08/11 09:59:01;;;;;;;4.78;2.40;;;29.70;53.00;;;;;;5053938;28;20120;-81
2022/08/11 10:01:33;;;;;;;4.45;1.92;;;28.40;51.30;;;;;;5056558;28;20021;-80
2022/08/11 10:04:07;;;;;;;6.25;1.80;;;28.70;50.80;;;;;;5059380;28;20036;-83
2022/08/11 10:09:23;;;;;;;3.55;1.85;;;28.60;50.40;;;;;;5064734;28;20040;-84
2022/08/11 10:11:52;;;;;;;5.43;2.05;;;28.50;50.20;;;;;;5067264;28;20021;-84
2022/08/11 10:17:08;;;;;;;3.83;1.80;;;28.60;49.70;;;;;;5060884;28;20072;-81
2022/08/11 10:19:36;;;;;;;3.72;1.77;;;28.80;50.00;;;;;;5056522;28;20021;-82
2022/08/11 10:27:34;;;;;;;3.75;2.03;;;;;;;;;;5064616;28;20016;-80
2022/08/11 10:35:53;;;;;;;4.05;1.80;;;29.10;49.60;;;;;;5029764;28;20026;-80
2022/08/11 10:38:19;;;;;;;3.53;2.05;;;;;;;;;;5032050;28;20084;-80
2022/08/11 10:43:01;;;;;;;5.43;2.10;;;29.50;49.80;;;;;;5045052;28;20037;-80
2022/08/11 10:43:32;;;;;;;6.95;2.10;;;29.50;49.50;;;;;;5065239;28;20155;-79
2022/08/11 10:48:44;;;;;;;4.30;1.80;;;29.50;49.90;;;;;;5062612;28;20066;-81
2022/08/11 10:51:13;;;;;;;3.67;1.92;;;;;;;;;;5045074;28;20032;-80
2022/08/11 10:59:23;;;;;;;4.13;1.85;;;29.80;48.80;;;;;;5049941;28;20540;-79
2022/08/11 11:01:51;;;;;;;3.00;1.80;;;29.80;49.20;;;;;;5058932;28;20037;-81
2022/08/11 11:04:21;;;;;;;3.60;2.00;;;30.00;48.80;;;;;;5053459;28;20461;-79
2022/08/11 11:07:04;;;;;;;3.95;1.83;;;30.10;48.90;;;;;;5059819;28;20028;-80
2022/08/11 11:09:35;;;;;;;3.63;2.17;;;30.10;49.30;;;;;;5048400;28;20032;-80
2022/08/11 11:18:08;;;;;;;3.85;2.10;;;29.80;48.90;;;;;;5059834;28;20056;-79
2022/08/11 11:20:49;;;;;;;4.72;1.88;;;29.80;48.90;;;;;;5052961;28;20087;-81
2022/08/11 11:23:19;;;;;;;4.50;1.70;;;30.00;48.50;;;;;;5044893;28;20061;-80
2022/08/11 11:26:09;;;;;;;4.57;2.05;;;30.10;48.50;;;;;;5047668;28;20395;-81
2022/08/11 11:29:07;;;;;;;3.28;1.60;;;30.30;48.30;;;;;;5060238;28;20017;-81
2022/08/11 11:32:02;;;;;;;5.28;2.00;;;30.50;48.60;;;;;;5064467;28;20021;-83
2022/08/11 11:35:04;;;;;;;4.13;1.75;;;30.20;48.00;;;;;;5060810;28;20029;-82
2022/08/11 11:37:35;;;;;;;4.28;2.00;;;30.30;48.30;;;;;;5059023;28;20029;-79
2022/08/11 11:40:11;;;;;;;5.82;1.95;;;30.30;48.90;;;;;;5039692;28;20056;-80
2022/08/11 11:42:43;;;;;;;4.15;1.70;;;30.40;47.60;;;;;;5041087;28;20033;-80
2022/08/11 11:45:14;;;;;;;4.78;1.92;;;30.50;47.70;;;;;;5058648;28;20033;-81
2022/08/11 11:47:40;;;;;;;3.65;1.88;;;30.50;48.10;;;;;;5043534;28;20025;-80
2022/08/11 11:50:08;;;;;;;2.67;1.90;;;30.30;48.20;;;;;;5051359;28;20082;-81
2022/08/11 11:52:36;;;;;;;2.75;1.88;;;30.30;48.20;;;;;;5059395;28;20029;-81
2022/08/11 11:55:04;;;;;;;4.22;1.88;;;30.40;47.40;;;;;;5044389;28;20032;-80
2022/08/11 12:03:04;;;;;;;4.43;1.80;;;30.60;47.50;;;;;;5057863;28;20556;-79
2022/08/11 12:05:33;;;;;;;6.00;1.85;;;30.60;47.80;;;;;;5041286;28;20079;-80
2022/08/11 12:08:15;;;;;;;8.07;2.00;;;30.70;47.80;;;;;;5047478;28;20119;-80
2022/08/11 12:13:40;;;;;;;;;;;31.00;47.30;;;;;;5059378;28;20032;-79
2022/08/11 12:16:09;;;;;;;4.53;1.77;;;31.00;47.50;;;;;;5045045;28;19916;-79
2022/08/11 12:18:35;;;;;;;5.13;2.15;;;31.00;47.30;;;;;;5061873;28;20037;-82
2022/08/11 12:21:03;;;;;;;4.47;1.90;;;30.90;46.90;;;;;;5060675;28;20033;-82
2022/08/11 12:29:04;;;;;;;4.25;2.00;;;30.90;46.90;;;;;;5049971;28;20056;-81
2022/08/11 12:31:31;;;;;;;6.38;2.17;;;30.90;47.20;;;;;;5043926;28;20021;-80
2022/08/11 12:34:05;;;;;;;3.47;2.03;;;31.00;47.00;;;;;;5045484;28;20048;-80
2022/08/11 12:36:36;;;;;;;3.80;1.80;;;30.90;47.30;;;;;;5050527;28;20037;-79
2022/08/11 12:39:06;;;;;;;3.88;1.88;;;30.90;47.30;;;;;;5062005;28;20426;-79
2022/08/11 12:47:04;;;;;;;5.25;1.95;;;30.90;47.10;;;;;;5065891;28;20032;-80
2022/08/11 12:52:22;;;;;;;3.72;2.20;;;30.90;48.00;;;;;;5064608;28;20051;-79
2022/08/11 12:54:56;;;;;;;4.47;2.25;;;30.60;48.30;;;;;;5049780;28;20025;-80
2022/08/11 13:05:46;;;;;;;5.63;2.20;;;30.70;48.10;;;;;;5052786;28;20094;-79
2022/08/11 13:08:13;;;;;;;3.90;2.40;;;31.00;47.80;;;;;;5051902;28;20032;-80
2022/08/11 13:13:25;;;;;;;6.03;2.10;;;30.90;48.00;;;;;;5055045;28;20055;-80
2022/08/11 13:15:51;;;;;;;4.03;1.75;;;31.10;48.20;;;;;;5062689;28;20032;-80
2022/08/11 13:18:22;;;;;;;5.57;2.42;;;31.00;48.00;;;;;;5061327;28;20024;-80
2022/08/11 13:20:52;;;;;;;3.60;2.03;;;31.00;48.30;;;;;;5042432;28;20032;-81
2022/08/11 13:23:18;;;;;;;5.20;2.00;;;;;;;;;;5044088;28;20024;-80
2022/08/11 13:25:44;;;;;;;5.70;2.30;;;;;;;;;;5062792;28;20060;-82
2022/08/11 13:28:11;;;;;;;5.25;2.10;;;;;;;;;;5057263;28;20032;-80
2022/08/11 13:33:42;;;;;;;2.80;1.75;;;31.20;47.50;;;;;;4999684;28;20036;-79
2022/08/11 13:36:09;;;;;;;3.58;2.08;;;;;;;;;;5052755;28;20042;-80
2022/08/11 13:38:36;;;;;;;4.70;2.63;;;31.10;47.00;;;;;;5053958;28;20025;-79
2022/08/11 13:41:36;;;;;;;4.63;2.00;;;31.20;47.20;;;;;;5046547;28;20079;-80
2022/08/11 13:43:51;;;;;;;2.90;2.00;;;31.00;46.30;;;;;;5062459;28;20035;-79
2022/08/11 13:46:21;;;;;;;3.08;1.80;;;;;;;;;;5052666;28;20037;-80
2022/08/11 13:48:47;;;;;;;4.85;2.10;;;;;;;;;;5044359;28;20025;-81
2022/08/11 13:51:32;;;;;;;3.17;1.70;;;;;;;;;;5044486;28;20108;-79
2022/08/11 13:54:09;;;;;;;3.50;2.05;;;31.30;46.00;;;;;;5049661;28;20028;-81
2022/08/11 13:56:40;;;;;;;4.15;1.88;;;31.30;46.00;;;;;;5063617;28;20079;-81
2022/08/11 13:59:07;;;;;;;3.10;1.80;;;31.30;46.30;;;;;;5045331;28;20033;-80
2022/08/11 14:01:38;;;;;;;3.90;1.90;;;31.30;46.20;;;;;;5045243;28;20033;-79
2022/08/11 14:04:33;;;;;;;4.55;1.98;;;31.00;45.80;;;;;;5050186;28;20029;-79
2022/08/11 14:07:01;;;;;;;3.25;2.00;;;31.00;46.30;;;;;;5058940;28;20037;-82
2022/08/11 14:09:31;;;;;;;2.42;1.73;;;31.20;45.80;;;;;;5059002;28;20009;-80
2022/08/11 14:14:51;;;;;;;3.78;1.75;;;31.10;45.30;;;;;;5055907;28;20086;-79
2022/08/11 14:17:19;;;;;;;4.80;2.38;;;31.20;45.30;;;;;;5046789;28;20022;-79
2022/08/11 14:19:48;;;;;;;3.03;1.67;;;31.20;45.60;;;;;;5061749;28;20024;-79
2022/08/11 14:22:16;;;;;;;4.68;1.80;;;31.20;46.00;;;;;;5045663;28;20045;-80
2022/08/11 14:24:48;;;;;;;4.63;1.90;;;31.10;45.50;;;;;;5062317;28;20044;-81
2022/08/11 14:27:15;;;;;;;6.18;2.25;;;31.00;45.60;;;;;;5046328;28;20025;-80
2022/08/11 14:29:42;;;;;;;3.17;1.80;;;30.60;45.60;;;;;;5063058;28;20029;-80
2022/08/11 14:32:10;;;;;;;6.70;1.90;;;30.50;45.70;;;;;;5058091;28;20126;-80
2022/08/11 14:34:40;;;;;;;7.20;2.10;;;30.60;45.10;;;;;;5054074;28;20023;-79
2022/08/11 14:37:12;;;;;;;2.90;1.73;;;30.70;45.70;;;;;;5061417;28;20029;-80
2022/08/11 14:39:44;;;;;;;7.82;4.15;;;30.80;45.30;;;;;;5061822;28;20047;-79
2022/08/11 14:47:53;;;;;;;4.00;1.70;;;31.00;45.00;;;;;;5058524;28;20116;-80
2022/08/11 14:50:23;;;;;;;4.32;1.85;;;31.00;44.10;;;;;;5037838;28;20032;-82
2022/08/11 14:52:55;;;;;;;4.43;2.03;;;31.00;44.40;;;;;;5053441;28;20109;-80
2022/08/11 14:58:16;;;;;;;3.65;2.20;;;31.20;45.30;;;;;;5070543;28;20111;-79
2022/08/11 15:00:43;;;;;;;5.43;2.90;;;31.30;44.80;;;;;;5062237;28;20056;-80
2022/08/11 15:03:13;;;;;;;4.18;2.10;;;31.30;43.70;;;;;;5058923;28;20095;-81
2022/08/11 15:05:53;;;;;;;3.60;1.90;;;31.30;43.30;;;;;;5075449;28;20021;-81
2022/08/11 15:08:19;;;;;;;4.68;1.90;;;31.30;43.70;;;;;;5070919;28;20033;-81
2022/08/11 15:10:48;;;;;;;2.65;1.75;;;31.10;43.90;;;;;;5052717;28;20032;-81
2022/08/11 15:13:20;;;;;;;4.25;1.85;;;;;;;;;;5071363;28;20017;-81
2022/08/11 15:18:31;;;;;;;3.47;1.58;;;30.90;44.60;;;;;;5076145;28;20069;-81
2022/08/11 15:37:35;;;;;;;4.32;2.05;;;31.00;44.30;;;;;;5074823;28;20016;-81
2022/08/11 15:46:34;;;;;;;2.25;1.80;;;30.80;44.20;;;;;;5077049;28;20016;-80
2022/08/11 15:49:23;;;;;;;3.40;2.03;;;30.80;44.50;;;;;;5047284;28;20048;-80
2022/08/11 15:51:59;;;;;;;4.68;1.65;;;30.80;44.00;;;;;;5059054;28;20025;-80
2022/08/11 15:54:29;;;;;;;4.93;2.40;;;30.90;44.00;;;;;;5062266;28;20075;-80
2022/08/11 15:56:57;;;;;;;4.30;1.88;;;30.80;44.10;;;;;;5054724;28;20041;-80
2022/08/11 16:05:04;;;;;;;5.05;2.22;;;30.70;43.60;;;;;;5064908;28;20097;-80
2022/08/11 16:07:34;;;;;;;5.75;2.25;;;30.50;43.90;;;;;;5030117;28;20491;-81
2022/08/11 16:10:08;;;;;;;;;;;30.50;43.90;;;;;;5056207;28;20115;-81
2022/08/11 16:18:17;;;;;;;5.63;2.10;;;30.60;44.00;;;;;;5061125;28;20089;-81
2022/08/11 16:20:45;;;;;;;4.93;1.80;;;30.50;44.00;;;;;;5063574;28;20037;-79
2022/08/11 16:23:14;;;;;;;3.80;2.00;;;30.50;44.20;;;;;;5064331;28;20021;-79
2022/08/11 16:25:41;;;;;;;3.47;1.70;;;30.20;43.80;;;;;;5047437;28;20025;-81
2022/08/11 16:28:10;;;;;;;4.05;1.90;;;30.20;43.80;;;;;;5057333;28;20017;-80
2022/08/11 16:30:40;;;;;;;4.07;2.15;;;30.10;44.00;;;;;;5022503;28;20044;-80
2022/08/11 16:33:08;;;;;;;4.20;2.00;;;30.20;44.20;;;;;;5044499;28;20107;-80
2022/08/11 16:38:38;;;;;;;5.28;2.10;;;30.00;44.10;;;;;;5067581;28;20039;-80
2022/08/11 16:41:10;;;;;;;5.25;2.00;;;30.00;44.40;;;;;;5056148;28;20093;-81
2022/08/11 16:49:30;;;;;;;6.65;1.90;;;30.10;44.30;;;;;;5065580;28;20117;-80
2022/08/11 16:51:56;;;;;;;2.67;1.85;;;30.10;44.80;;;;;;5057474;28;20036;-82
2022/08/11 16:54:22;;;;;;;6.90;2.13;;;30.20;44.50;;;;;;5048631;28;20025;-81
2022/08/11 16:56:52;;;;;;;2.30;1.88;;;30.20;44.40;;;;;;5065020;28;20031;-80
2022/08/11 16:59:25;;;;;;;2.75;1.83;;;30.20;44.80;;;;;;5064073;28;20028;-81
2022/08/11 17:01:55;;;;;;;8.27;2.17;;;30.20;45.30;;;;;;5065046;28;20035;-80
2022/08/11 17:13:40;;;;;;;5.55;2.70;;;30.50;44.80;;;;;;5058760;28;20029;-80
2022/08/11 17:16:11;;;;;;;6.47;2.28;;;30.50;44.90;;;;;;5032506;28;20037;-81
2022/08/11 17:18:58;;;;;;;3.97;1.90;;;30.50;44.90;;;;;;5047985;28;20487;-79
2022/08/11 17:21:32;;;;;;;4.70;2.15;;;30.50;44.70;;;;;;5043213;28;20032;-82
2022/08/11 17:24:04;;;;;;;3.42;1.90;;;30.60;44.50;;;;;;5038169;28;20113;-81
2022/08/11 17:26:55;;;;;;;4.53;2.10;;;30.50;44.50;;;;;;5044519;28;20480;-80
2022/08/11 17:29:38;;;;;;;3.25;2.10;;;30.60;44.70;;;;;;5058075;28;20071;-82
2022/08/11 17:37:40;;;;;;;3.78;2.10;;;;;;;;;;5051653;28;20051;-80
2022/08/11 17:40:08;;;;;;;5.40;2.05;;;30.60;43.80;;;;;;5050480;28;20120;-81
2022/08/11 17:48:26;;;;;;;5.07;2.42;;;30.60;44.60;;;;;;5049038;28;20112;-80
2022/08/11 17:51:01;;;;;;;4.90;2.35;;;30.70;44.10;;;;;;5058481;28;20025;-82
2022/08/11 18:01:52;;;;;;;3.03;2.20;;;29.80;44.90;;;;;;5058284;28;20475;-82
2022/08/11 18:04:19;;;;;;;3.83;2.15;;;29.70;45.10;;;;;;5039687;28;20024;-81
2022/08/11 18:06:46;;;;;;;4.85;2.25;;;29.60;45.30;;;;;;5040788;28;20052;-80
